Kennard, Nebraska
Current Conditions -  °F | °C
As of 12:35 AM on Sunday 21 Dec 2014 (Local Time) from KBTA Reporting Station
Haze Haze  
Wind Chill: 28°   Ceiling: 200
Heat Index: 36°   Visibility: 1.7mi
Dew Point: 34°   Wind: 10mph
Humidity: 94%   Direction: 150°SSE
Pressure: 29.98"   Gusts: NA
Location:  41.47°N, 96.2°W
Report Text: KBTA 210635Z AUTO 15009KT 1 3/4SM BR OVC002 02/01 A2998 RMK AO2 T00210013
Loading
Personal Weather Stations






























Interactive Weather Map New forecast layout! Learn more

10-Day Weather Forecast

Advertisements
Track Severe Weather on mobile